Pagina principale
METAR-TAF:

METAR-TAF

Aeroporti :

Aeroporto di Pantelleria

Pantelleria, Italia

latitudine: 36-49N, longitudine: 011-58E, altezza: 191 m

Osservazione

Il bollettino è stato emesso 56 minuti fa, alle 10:50 UTC
Vento 5 kt da nord
Temperature 26°C
Umidità 34%
Pressione 1023 hPa
Visibilità 10 km o più
nessuna nube inferiore a 1500 m e nessun cumulonembo

METAR: LICG 191050Z 01005KT CAVOK 26/09 Q1023

Ora: 13:46 (11:46 UTC)

Previsione

Il bollettino è stato emesso 46 minuti fa, alle 11:00 UTC
Previsione valida dal 19 alle 12 UTC al 19 alle 21 UTC
Vento 6 kt da nord/nord-est
Visibilità 10 km o più
nessuna nube inferiore a 1500 m e nessun cumulonembo
Evoluzione graduale
dal 19 alle 17 UTC al 19 alle 19 UTC
Vento 10 kt da sud/sud-est

TAF: LICG 191100Z 1912/1921 02006KT CAVOK BECMG 1917/1919 16010KT

Osservazioni e previsioni meteorologiche di più di 4000 aeroporti (messaggi METAR e TAF).

Le stazioni disponibili sono rappresentate dai dischi gialli e rossi sulla carta.

Puntare il mouse per vedere il nome della stazione.

Clicca sopra per visualizzare le osservazioni e previsioni meteorologiche.

Per cambiare la mappa : fare clic sui pulsanti verdi con una croce nera per ingrandire, il pulsante verde con un trattino per diminuire, o sulla freccia verde per le mappe adiacenti.


METAR-TAF: